createdAt,value
2023-05-13T00:01:22.960Z,12.31
2023-05-13T00:03:50.539Z,12.43
2023-05-13T00:06:18.111Z,12.50
2023-05-13T00:08:45.458Z,12.37
2023-05-13T00:11:14.202Z,12.39
2023-05-13T00:13:41.538Z,11.97
2023-05-13T00:16:08.895Z,11.81
2023-05-13T00:18:36.391Z,12.09
2023-05-13T00:21:04.334Z,12.24
2023-05-13T00:23:31.702Z,12.27
2023-05-13T00:25:59.651Z,12.41
2023-05-13T00:28:28.328Z,12.40
2023-05-13T00:30:55.618Z,12.40
2023-05-13T00:33:22.931Z,12.34
2023-05-13T00:35:50.285Z,12.14
2023-05-13T00:38:17.645Z,12.18
2023-05-13T00:40:45.765Z,12.19
2023-05-13T00:43:13.157Z,12.26
2023-05-13T00:45:41.900Z,12.22
2023-05-13T00:48:09.786Z,12.25
2023-05-13T00:50:37.407Z,12.28
2023-05-13T00:53:04.741Z,12.29
2023-05-13T00:55:32.025Z,12.07
2023-05-13T00:57:59.365Z,12.04
2023-05-13T01:00:27.706Z,11.90
2023-05-13T01:03:06.892Z,11.63
2023-05-13T01:05:42.301Z,11.45
2023-05-13T01:08:20.433Z,11.30
2023-05-13T01:10:51.576Z,11.53
2023-05-13T01:13:23.958Z,11.63
2023-05-13T01:15:56.760Z,11.60
2023-05-13T01:18:37.093Z,11.39
2023-05-13T01:21:06.179Z,11.52
2023-05-13T01:23:34.930Z,11.32
2023-05-13T01:26:02.247Z,11.49
2023-05-13T01:28:29.858Z,11.36
2023-05-13T01:30:57.878Z,11.32
2023-05-13T01:33:26.084Z,11.42
2023-05-13T01:35:53.554Z,11.47
2023-05-13T01:38:21.784Z,11.68
2023-05-13T01:40:51.000Z,11.59
2023-05-13T01:43:18.321Z,11.72
2023-05-13T01:45:45.619Z,11.61
2023-05-13T01:48:13.204Z,11.74
2023-05-13T01:50:40.501Z,11.84
2023-05-13T01:53:07.843Z,11.84
2023-05-13T01:55:35.123Z,11.87
2023-05-13T01:58:03.796Z,11.84
2023-05-13T02:00:31.171Z,11.96
2023-05-13T02:02:58.530Z,11.85
2023-05-13T02:05:25.851Z,11.81
2023-05-13T02:07:53.288Z,11.91
2023-05-13T02:10:20.800Z,12.02
2023-05-13T02:12:48.163Z,11.96
2023-05-13T02:15:16.982Z,12.11
2023-05-13T02:17:44.373Z,12.20
2023-05-13T02:20:13.066Z,12.15
2023-05-13T02:22:40.432Z,11.81
2023-05-13T02:25:08.868Z,11.80
2023-05-13T02:27:36.189Z,11.91
2023-05-13T02:30:03.829Z,11.47
2023-05-13T02:32:32.724Z,11.61
2023-05-13T02:35:00.211Z,11.49
2023-05-13T02:37:27.485Z,11.75
2023-05-13T02:39:54.813Z,11.85
2023-05-13T02:42:22.357Z,11.49
2023-05-13T02:44:49.914Z,11.63
2023-05-13T02:47:17.291Z,11.61
2023-05-13T02:49:45.957Z,11.68
2023-05-13T02:52:13.217Z,11.88
2023-05-13T02:54:40.584Z,11.95
2023-05-13T02:57:08.044Z,11.98
2023-05-13T02:59:35.328Z,12.12
2023-05-13T03:02:02.658Z,12.02
2023-05-13T03:04:30.179Z,11.84
2023-05-13T03:06:58.900Z,11.91
2023-05-13T03:09:26.169Z,11.70
2023-05-13T03:11:53.632Z,11.79
2023-05-13T03:14:20.899Z,11.84
2023-05-13T03:16:48.195Z,11.68
2023-05-13T03:19:15.685Z,11.84
2023-05-13T03:21:43.066Z,12.00
2023-05-13T03:24:11.766Z,12.14
2023-05-13T03:26:39.044Z,12.16
2023-05-13T03:29:06.340Z,12.08
2023-05-13T03:31:33.763Z,11.59
2023-05-13T03:34:01.177Z,11.52
2023-05-13T03:36:28.656Z,11.74
2023-05-13T03:38:56.092Z,12.00
2023-05-13T03:41:24.930Z,12.05
2023-05-13T03:43:52.244Z,11.89
2023-05-13T03:46:19.665Z,11.52
2023-05-13T03:48:47.100Z,11.66
2023-05-13T03:51:14.658Z,11.95
2023-05-13T03:53:42.058Z,12.15
2023-05-13T03:56:09.367Z,12.18
2023-05-13T03:58:38.120Z,11.82
2023-05-13T04:01:07.621Z,11.93
2023-05-13T04:03:35.209Z,12.11
2023-05-13T04:06:02.573Z,12.30
2023-05-13T04:08:29.885Z,12.39
2023-05-13T04:10:57.232Z,12.32
2023-05-13T04:13:24.709Z,11.99
2023-05-13T04:15:53.407Z,12.14
2023-05-13T04:18:21.170Z,12.24
2023-05-13T04:20:48.500Z,12.11
2023-05-13T04:23:15.879Z,12.18
2023-05-13T04:25:43.236Z,12.25
2023-05-13T04:28:10.616Z,12.25
2023-05-13T04:30:38.136Z,12.20
2023-05-13T04:33:06.914Z,12.28
2023-05-13T04:35:34.236Z,12.22
2023-05-13T04:38:01.648Z,12.28
2023-05-13T04:40:29.207Z,12.32
2023-05-13T04:42:56.524Z,12.36
2023-05-13T04:45:24.061Z,12.42
2023-05-13T04:47:51.410Z,12.31
2023-05-13T04:50:20.323Z,11.90
2023-05-13T04:52:47.968Z,11.79
2023-05-13T04:55:15.470Z,11.91
2023-05-13T04:57:42.768Z,12.09
2023-05-13T05:00:11.853Z,12.20
2023-05-13T05:02:39.318Z,12.19
2023-05-13T05:05:07.252Z,12.29
2023-05-13T05:07:36.018Z,12.29
2023-05-13T05:10:03.436Z,12.13
2023-05-13T05:12:30.732Z,12.24
2023-05-13T05:14:58.126Z,12.25
2023-05-13T05:17:25.536Z,12.37
2023-05-13T05:19:52.880Z,12.49
2023-05-13T05:22:20.166Z,12.59
2023-05-13T05:24:48.807Z,12.67
2023-05-13T05:27:16.150Z,12.41
2023-05-13T05:29:43.492Z,12.14
2023-05-13T05:32:10.972Z,12.23
2023-05-13T05:34:38.595Z,12.42
2023-05-13T05:37:05.919Z,12.36
2023-05-13T05:39:33.250Z,12.52
2023-05-13T05:42:02.117Z,12.67
2023-05-13T05:44:29.474Z,12.76
2023-05-13T05:46:56.731Z,12.85
2023-05-13T05:49:24.068Z,12.75
2023-05-13T05:51:51.595Z,12.69
2023-05-13T05:54:18.868Z,12.86
2023-05-13T05:56:46.209Z,13.06
2023-05-13T05:59:15.067Z,13.12
2023-05-13T06:01:42.369Z,12.67
2023-05-13T06:04:09.951Z,12.67
2023-05-13T06:06:37.411Z,12.58
2023-05-13T06:09:04.763Z,12.76
2023-05-13T06:11:32.232Z,12.71
2023-05-13T06:13:59.649Z,12.82
2023-05-13T06:16:28.463Z,12.93
2023-05-13T06:18:55.883Z,13.23
2023-05-13T06:21:23.302Z,13.46
2023-05-13T06:23:50.700Z,13.59
2023-05-13T06:26:18.005Z,13.45
2023-05-13T06:28:45.305Z,13.59
2023-05-13T06:31:12.694Z,13.80
2023-05-13T06:33:41.348Z,14.12
2023-05-13T06:36:08.917Z,14.10
2023-05-13T06:38:36.278Z,13.98
2023-05-13T06:41:03.837Z,14.17
2023-05-13T06:43:31.315Z,14.43
2023-05-13T06:45:58.844Z,14.80
2023-05-13T06:48:26.199Z,14.68
2023-05-13T06:50:55.111Z,14.70
2023-05-13T06:53:22.440Z,15.01
2023-05-13T06:55:50.099Z,15.23
2023-05-13T06:58:17.420Z,15.80
2023-05-13T07:00:44.793Z,16.57
2023-05-13T07:03:12.293Z,17.46
2023-05-13T07:05:39.629Z,17.69
2023-05-13T07:08:08.312Z,18.01
2023-05-13T07:10:36.252Z,18.24
2023-05-13T07:13:03.788Z,17.97
2023-05-13T07:15:31.282Z,18.19
2023-05-13T07:17:58.760Z,18.87
2023-05-13T07:20:26.137Z,19.05
2023-05-13T07:22:53.460Z,19.14
2023-05-13T07:25:22.218Z,18.72
2023-05-13T07:27:49.563Z,18.86
2023-05-13T07:30:16.887Z,18.63
2023-05-13T07:32:44.272Z,18.60
2023-05-13T07:35:11.741Z,18.54
2023-05-13T07:37:39.084Z,18.18
2023-05-13T07:40:07.473Z,17.27
2023-05-13T07:42:36.529Z,16.54
2023-05-13T07:45:04.448Z,16.48
2023-05-13T07:47:31.999Z,16.42
2023-05-13T07:49:59.647Z,16.24
2023-05-13T07:52:27.186Z,16.44
2023-05-13T07:54:54.591Z,16.83
2023-05-13T07:57:21.926Z,17.43
2023-05-13T07:59:50.647Z,17.92
2023-05-13T08:02:18.021Z,18.45
2023-05-13T08:04:45.564Z,18.43
2023-05-13T08:07:12.941Z,18.65
2023-05-13T08:09:40.183Z,18.66
2023-05-13T08:12:08.277Z,18.40
2023-05-13T08:14:36.202Z,17.98
2023-05-13T08:17:06.020Z,17.74
2023-05-13T08:19:33.423Z,17.68
2023-05-13T08:22:00.958Z,17.72
2023-05-13T08:24:28.406Z,18.13
2023-05-13T08:26:55.828Z,18.20
2023-05-13T08:29:23.191Z,18.16
2023-05-13T08:31:50.623Z,18.20
2023-05-13T08:34:19.379Z,18.08
2023-05-13T08:36:46.691Z,17.97
2023-05-13T08:39:14.096Z,17.99
2023-05-13T08:41:43.096Z,18.08
2023-05-13T08:44:12.266Z,18.15
2023-05-13T08:46:44.097Z,18.26
2023-05-13T08:49:12.099Z,18.23
2023-05-13T08:51:43.141Z,18.34
2023-05-13T08:54:10.835Z,18.08
2023-05-13T08:56:38.169Z,17.03
2023-05-13T08:59:05.490Z,16.94
2023-05-13T09:01:34.331Z,17.08
2023-05-13T09:04:04.445Z,17.12
2023-05-13T09:06:31.843Z,17.43
2023-05-13T09:09:02.300Z,17.31
2023-05-13T09:11:29.612Z,17.53
2023-05-13T09:13:57.820Z,17.73
2023-05-13T09:16:27.463Z,17.75
2023-05-13T09:18:59.146Z,18.09
2023-05-13T09:21:28.010Z,18.21
2023-05-13T09:24:11.349Z,18.03
2023-05-13T09:26:39.652Z,18.18
2023-05-13T09:29:20.855Z,18.13
2023-05-13T09:31:50.469Z,18.13
2023-05-13T09:34:29.233Z,18.47
2023-05-13T09:36:57.923Z,18.51
2023-05-13T09:39:27.094Z,18.88
2023-05-13T09:41:54.710Z,19.16
2023-05-13T09:44:22.421Z,19.50
2023-05-13T09:46:51.600Z,19.61
2023-05-13T09:49:22.421Z,19.76
2023-05-13T09:51:49.768Z,19.41
2023-05-13T09:54:17.100Z,19.37
2023-05-13T09:56:45.765Z,19.25
2023-05-13T09:59:15.234Z,19.58
2023-05-13T10:01:43.703Z,19.62
2023-05-13T10:04:11.597Z,18.71
2023-05-13T10:06:39.459Z,18.94
2023-05-13T10:09:09.294Z,19.05
2023-05-13T10:11:37.088Z,19.06
2023-05-13T10:14:06.850Z,18.71
2023-05-13T10:16:34.326Z,18.70
2023-05-13T10:19:02.755Z,18.43
2023-05-13T10:21:31.493Z,17.96
2023-05-13T10:23:59.324Z,18.10
2023-05-13T10:26:26.895Z,17.99
2023-05-13T10:28:55.649Z,18.24
2023-05-13T10:31:25.701Z,18.16
2023-05-13T10:33:53.404Z,18.23
2023-05-13T10:36:50.600Z,17.97
2023-05-13T10:39:41.325Z,18.10
2023-05-13T10:42:40.473Z,18.63
2023-05-13T10:45:08.347Z,19.21
2023-05-13T10:47:37.804Z,19.41
2023-05-13T10:50:07.170Z,19.38
2023-05-13T10:52:47.195Z,19.36
2023-05-13T10:55:19.022Z,19.43
2023-05-13T10:58:12.409Z,19.77
2023-05-13T11:00:40.486Z,19.79
2023-05-13T11:03:28.767Z,19.71
2023-05-13T11:06:13.816Z,20.29
2023-05-13T11:08:42.839Z,20.59
2023-05-13T11:11:29.380Z,20.24
2023-05-13T11:14:08.197Z,19.76
2023-05-13T11:16:36.587Z,19.20
2023-05-13T11:19:09.718Z,19.03
2023-05-13T11:21:37.245Z,18.87
2023-05-13T11:24:06.369Z,18.75
2023-05-13T11:26:46.688Z,18.51
2023-05-13T11:29:14.375Z,18.19
2023-05-13T11:31:46.304Z,18.18
2023-05-13T11:34:16.481Z,17.40
2023-05-13T11:36:46.425Z,16.27
2023-05-13T11:39:15.846Z,15.87
2023-05-13T11:41:47.030Z,15.47
2023-05-13T11:44:15.543Z,15.45
2023-05-13T11:46:53.817Z,15.45
2023-05-13T11:49:37.621Z,15.51
2023-05-13T11:52:07.555Z,15.68
2023-05-13T11:54:46.686Z,15.36
2023-05-13T11:57:21.700Z,15.62
2023-05-13T11:59:53.986Z,15.47
2023-05-13T12:02:22.461Z,16.05
2023-05-13T12:04:52.009Z,16.54
2023-05-13T12:07:23.885Z,16.88
2023-05-13T12:09:51.835Z,17.08
2023-05-13T12:12:20.178Z,17.33
2023-05-13T12:14:48.497Z,17.66
2023-05-13T12:17:16.124Z,17.96
2023-05-13T12:20:06.208Z,18.32
2023-05-13T12:22:33.668Z,18.27
2023-05-13T12:25:21.400Z,18.03
2023-05-13T12:27:51.936Z,18.08
2023-05-13T12:30:19.240Z,17.62
2023-05-13T12:32:47.454Z,17.58
2023-05-13T12:35:16.371Z,17.47
2023-05-13T12:37:43.764Z,17.32
2023-05-13T12:40:11.628Z,17.37
2023-05-13T12:42:39.036Z,17.56
2023-05-13T12:45:07.446Z,17.72
2023-05-13T12:47:48.488Z,17.98
2023-05-13T12:50:17.371Z,18.06
2023-05-13T12:52:44.632Z,17.82
2023-05-13T12:55:11.938Z,17.66
2023-05-13T12:57:40.769Z,17.67
2023-05-13T13:00:10.959Z,17.63
2023-05-13T13:02:39.871Z,18.14
2023-05-13T13:05:08.352Z,18.63
2023-05-13T13:07:37.032Z,18.69
2023-05-13T13:10:05.633Z,18.67
2023-05-13T13:12:32.945Z,18.33
2023-05-13T13:15:00.359Z,18.24
2023-05-13T13:17:27.784Z,18.16
2023-05-13T13:19:55.234Z,18.27
2023-05-13T13:22:22.577Z,18.03
2023-05-13T13:24:51.222Z,18.21
2023-05-13T13:27:18.503Z,18.48
2023-05-13T13:29:45.891Z,17.98
2023-05-13T13:32:13.550Z,18.15
2023-05-13T13:34:40.982Z,18.27
2023-05-13T13:37:08.253Z,17.89
2023-05-13T13:39:35.540Z,18.00
2023-05-13T13:42:04.578Z,17.38
2023-05-13T13:44:32.291Z,17.36
2023-05-13T13:46:59.852Z,16.84
2023-05-13T13:49:27.155Z,16.67
2023-05-13T13:51:55.187Z,16.52
2023-05-13T13:54:22.594Z,16.57
2023-05-13T13:56:50.129Z,16.41
2023-05-13T13:59:18.868Z,16.30
2023-05-13T14:01:46.389Z,16.36
2023-05-13T14:04:16.130Z,16.39
2023-05-13T14:06:44.997Z,16.66
2023-05-13T14:09:12.575Z,16.84
2023-05-13T14:11:39.853Z,17.11
2023-05-13T14:14:07.853Z,17.40
2023-05-13T14:16:37.007Z,17.78
2023-05-13T14:19:04.657Z,17.78
2023-05-13T14:21:32.319Z,17.84
2023-05-13T14:23:59.661Z,17.65
2023-05-13T14:26:27.297Z,17.85
2023-05-13T14:28:54.671Z,18.20
2023-05-13T14:31:22.092Z,18.47
2023-05-13T14:33:50.752Z,18.14
2023-05-13T14:36:18.089Z,17.93
2023-05-13T14:38:48.101Z,17.62
2023-05-13T14:41:15.407Z,17.67
2023-05-13T14:43:42.729Z,17.55
2023-05-13T14:46:10.096Z,17.50
2023-05-13T14:48:37.449Z,17.57
2023-05-13T14:51:06.361Z,17.28
2023-05-13T14:53:33.704Z,17.10
2023-05-13T14:56:01.055Z,17.06
2023-05-13T14:58:28.519Z,17.29
2023-05-13T15:00:56.061Z,17.26
2023-05-13T15:03:23.481Z,17.64
2023-05-13T15:05:51.365Z,17.99
2023-05-13T15:08:20.147Z,18.52
2023-05-13T15:10:47.544Z,18.90
2023-05-13T15:13:14.803Z,18.97
2023-05-13T15:15:42.167Z,18.92
2023-05-13T15:18:09.534Z,18.88
2023-05-13T15:20:36.819Z,19.09
2023-05-13T15:23:04.352Z,19.26
2023-05-13T15:25:33.174Z,18.81
2023-05-13T15:28:00.664Z,18.87
2023-05-13T15:30:28.785Z,18.49
2023-05-13T15:32:56.166Z,18.30
2023-05-13T15:35:23.559Z,18.14
2023-05-13T15:37:50.991Z,17.87
2023-05-13T15:40:18.312Z,17.92
2023-05-13T15:42:46.982Z,17.68
2023-05-13T15:45:14.584Z,17.51
2023-05-13T15:47:42.170Z,17.49
2023-05-13T15:50:10.848Z,17.43
2023-05-13T15:52:38.416Z,17.42
2023-05-13T15:55:07.040Z,17.12
2023-05-13T15:57:34.354Z,16.65
2023-05-13T16:00:03.375Z,16.56
2023-05-13T16:02:30.820Z,16.51
2023-05-13T16:04:58.141Z,16.33
2023-05-13T16:07:25.452Z,16.40
2023-05-13T16:09:52.912Z,16.34
2023-05-13T16:12:20.237Z,16.46
2023-05-13T16:14:47.488Z,16.34
2023-05-13T16:17:16.293Z,16.68
2023-05-13T16:19:43.632Z,16.73
2023-05-13T16:22:28.490Z,16.93
2023-05-13T16:24:57.907Z,17.13
2023-05-13T16:27:25.238Z,17.42
2023-05-13T16:29:53.245Z,17.14
2023-05-13T16:32:22.110Z,17.27
2023-05-13T16:34:49.528Z,17.11
2023-05-13T16:37:17.000Z,17.09
2023-05-13T16:39:44.693Z,17.04
2023-05-13T16:42:12.033Z,17.17
2023-05-13T16:44:42.236Z,17.25
2023-05-13T16:47:10.794Z,17.04
2023-05-13T16:49:39.475Z,17.15
2023-05-13T16:52:07.518Z,17.13
2023-05-13T16:54:34.862Z,17.14
2023-05-13T16:57:02.419Z,17.23
2023-05-13T16:59:29.730Z,17.04
2023-05-13T17:01:56.996Z,17.03
2023-05-13T17:04:24.471Z,16.98
2023-05-13T17:06:53.323Z,16.70
2023-05-13T17:09:20.911Z,16.63
2023-05-13T17:11:48.194Z,16.31
2023-05-13T17:14:15.480Z,16.33
2023-05-13T17:16:42.880Z,16.47
2023-05-13T17:19:10.296Z,16.45
2023-05-13T17:21:37.709Z,16.47
2023-05-13T17:24:06.872Z,16.52
2023-05-13T17:26:36.159Z,16.54
2023-05-13T17:29:04.987Z,16.41
2023-05-13T17:31:32.459Z,16.41
2023-05-13T17:33:59.824Z,16.19
2023-05-13T17:36:27.195Z,16.24
2023-05-13T17:38:54.546Z,16.46
2023-05-13T17:41:23.264Z,16.23
2023-05-13T17:43:50.528Z,16.19
2023-05-13T17:46:17.919Z,16.00
2023-05-13T17:48:45.321Z,15.93
2023-05-13T17:51:12.707Z,15.87
2023-05-13T17:53:39.990Z,16.05
2023-05-13T17:56:07.474Z,15.94
2023-05-13T17:58:36.326Z,16.00
2023-05-13T18:01:03.906Z,15.91
2023-05-13T18:03:31.384Z,15.81
2023-05-13T18:05:58.692Z,15.50
2023-05-13T18:08:26.202Z,15.61
2023-05-13T18:10:53.517Z,15.63
2023-05-13T18:13:20.848Z,15.52
2023-05-13T18:15:49.817Z,15.53
2023-05-13T18:18:17.153Z,15.69
2023-05-13T18:20:44.431Z,15.58
2023-05-13T18:23:11.952Z,15.50
2023-05-13T18:25:52.125Z,15.28
2023-05-13T18:28:22.839Z,15.21
2023-05-13T18:30:51.505Z,14.88
2023-05-13T18:33:19.822Z,14.67
2023-05-13T18:35:47.214Z,14.64
2023-05-13T18:38:14.512Z,14.69
2023-05-13T18:40:41.842Z,14.69
2023-05-13T18:43:09.242Z,14.85
2023-05-13T18:45:36.888Z,14.79
2023-05-13T18:48:06.247Z,14.42
2023-05-13T18:50:33.589Z,14.68
2023-05-13T18:53:00.838Z,14.74
2023-05-13T18:55:28.187Z,14.59
2023-05-13T18:57:55.477Z,14.68
2023-05-13T19:00:23.102Z,14.72
2023-05-13T19:02:50.605Z,14.75
2023-05-13T19:05:20.531Z,14.84
2023-05-13T19:07:48.146Z,14.70
2023-05-13T19:10:15.698Z,14.44
2023-05-13T19:12:43.043Z,14.55
2023-05-13T19:15:10.839Z,14.53
2023-05-13T19:17:40.428Z,14.32
2023-05-13T19:20:09.388Z,14.47
2023-05-13T19:22:38.096Z,14.59
2023-05-13T19:25:06.108Z,14.60
2023-05-13T19:27:33.712Z,14.52
2023-05-13T19:30:01.161Z,14.49
2023-05-13T19:32:28.734Z,14.58
2023-05-13T19:34:56.210Z,14.67
2023-05-13T19:37:23.938Z,14.68
2023-05-13T19:39:52.743Z,14.54
2023-05-13T19:42:20.054Z,14.40
2023-05-13T19:44:47.354Z,14.42
2023-05-13T19:47:14.723Z,14.35
2023-05-13T19:49:42.028Z,14.25
2023-05-13T19:52:09.364Z,14.14
2023-05-13T19:54:36.867Z,14.13
2023-05-13T19:57:06.170Z,14.15
2023-05-13T19:59:33.536Z,14.08
2023-05-13T20:02:00.864Z,13.87
2023-05-13T20:04:28.159Z,13.78
2023-05-13T20:06:55.599Z,13.75
2023-05-13T20:09:23.075Z,13.85
2023-05-13T20:11:50.367Z,13.90
2023-05-13T20:14:22.152Z,13.91
2023-05-13T20:16:49.788Z,13.86
2023-05-13T20:19:17.354Z,13.89
2023-05-13T20:21:44.811Z,13.96
2023-05-13T20:24:12.471Z,13.98
2023-05-13T20:26:39.814Z,14.08
2023-05-13T20:29:07.128Z,14.18
2023-05-13T20:31:36.018Z,14.12
2023-05-13T20:34:03.343Z,14.24
2023-05-13T20:36:30.710Z,14.34
2023-05-13T20:38:58.259Z,14.44
2023-05-13T20:41:25.751Z,14.46
2023-05-13T20:43:53.109Z,14.55
2023-05-13T20:46:20.490Z,14.58
2023-05-13T20:48:49.238Z,14.66
2023-05-13T20:51:16.535Z,14.70
2023-05-13T20:53:43.854Z,14.71
2023-05-13T20:56:11.136Z,14.73
2023-05-13T20:58:38.449Z,14.73
2023-05-13T21:01:05.806Z,14.71
2023-05-13T21:03:33.602Z,14.77
2023-05-13T21:06:02.298Z,14.49
2023-05-13T21:08:29.579Z,14.40
2023-05-13T21:10:56.928Z,14.52
2023-05-13T21:13:24.385Z,14.51
2023-05-13T21:15:52.074Z,14.49
2023-05-13T21:18:19.410Z,14.58
2023-05-13T21:20:47.524Z,14.53
2023-05-13T21:23:16.234Z,14.66
2023-05-13T21:25:43.645Z,14.76
2023-05-13T21:28:10.924Z,14.70
2023-05-13T21:30:38.369Z,14.73
2023-05-13T21:33:05.721Z,14.70
2023-05-13T21:35:33.151Z,14.67
2023-05-13T21:38:10.967Z,14.62
2023-05-13T21:40:41.017Z,14.38
2023-05-13T21:43:08.313Z,14.36
2023-05-13T21:45:35.783Z,14.34
2023-05-13T21:48:03.497Z,14.15
2023-05-13T21:50:30.857Z,14.26
2023-05-13T21:52:58.208Z,14.37
2023-05-13T21:55:25.484Z,14.42
2023-05-13T21:57:54.187Z,14.34
2023-05-13T22:00:21.778Z,14.21
2023-05-13T22:02:50.645Z,14.26
2023-05-13T22:05:18.085Z,14.37
2023-05-13T22:07:45.448Z,14.37
2023-05-13T22:10:12.898Z,14.42
2023-05-13T22:12:40.229Z,14.55
2023-05-13T22:15:10.700Z,14.58
2023-05-13T22:17:38.225Z,14.56
2023-05-13T22:20:06.985Z,14.61
2023-05-13T22:22:34.342Z,14.48
2023-05-13T22:25:01.608Z,14.48
2023-05-13T22:27:28.966Z,14.53
2023-05-13T22:29:56.372Z,14.55
2023-05-13T22:32:25.122Z,14.50
2023-05-13T22:34:52.598Z,14.47
2023-05-13T22:37:19.935Z,14.50
2023-05-13T22:39:47.208Z,14.48
2023-05-13T22:42:14.559Z,14.52
2023-05-13T22:44:41.998Z,14.53
2023-05-13T22:47:09.379Z,14.44
2023-05-13T22:49:38.206Z,14.46
2023-05-13T22:52:06.251Z,14.43
2023-05-13T22:54:33.805Z,14.39
2023-05-13T22:57:01.082Z,14.50
2023-05-13T22:59:28.585Z,14.48
2023-05-13T23:01:56.058Z,14.50
2023-05-13T23:04:23.590Z,14.53
2023-05-13T23:06:52.256Z,14.56
2023-05-13T23:09:19.684Z,14.43
2023-05-13T23:11:47.072Z,14.50
2023-05-13T23:14:14.563Z,14.53
2023-05-13T23:16:41.920Z,14.56
2023-05-13T23:19:09.547Z,14.58
2023-05-13T23:21:36.972Z,14.49
2023-05-13T23:24:05.929Z,14.48
2023-05-13T23:26:33.341Z,14.43
2023-05-13T23:29:00.692Z,14.46
2023-05-13T23:31:27.991Z,14.40
2023-05-13T23:33:55.494Z,14.40
2023-05-13T23:36:22.940Z,14.30
2023-05-13T23:38:50.222Z,14.13
2023-05-13T23:41:19.055Z,14.16
2023-05-13T23:43:46.322Z,14.10
2023-05-13T23:46:13.767Z,14.18
2023-05-13T23:48:41.143Z,14.18
2023-05-13T23:51:08.465Z,14.22
2023-05-13T23:53:35.846Z,14.18
2023-05-13T23:56:03.303Z,14.11
2023-05-13T23:58:31.956Z,14.06
